sensor_id;sensor_type;location;lat;lon;timestamp;P1;durP1;ratioP1;P2;durP2;ratioP2
58990;SDS011;44781;53.444;14.476;2023-03-01T00:01:16;57.10;;;31.40;;
58990;SDS011;44781;53.444;14.476;2023-03-01T00:03:47;52.90;;;31.40;;
58990;SDS011;44781;53.444;14.476;2023-03-01T00:06:20;57.50;;;29.50;;
58990;SDS011;44781;53.444;14.476;2023-03-01T00:08:48;56.10;;;31.30;;
58990;SDS011;44781;53.444;14.476;2023-03-01T00:13:49;56.60;;;31.50;;
58990;SDS011;44781;53.444;14.476;2023-03-01T00:16:25;56.90;;;30.60;;
58990;SDS011;44781;53.444;14.476;2023-03-01T00:19:07;58.00;;;33.10;;
58990;SDS011;44781;53.444;14.476;2023-03-01T00:21:41;52.60;;;31.70;;
58990;SDS011;44781;53.444;14.476;2023-03-01T00:24:13;54.80;;;31.80;;
58990;SDS011;44781;53.444;14.476;2023-03-01T00:26:43;60.30;;;31.90;;
58990;SDS011;44781;53.444;14.476;2023-03-01T00:29:12;51.80;;;31.40;;
58990;SDS011;44781;53.444;14.476;2023-03-01T00:31:39;59.10;;;33.30;;
58990;SDS011;44781;53.444;14.476;2023-03-01T00:34:06;64.80;;;37.90;;
58990;SDS011;44781;53.444;14.476;2023-03-01T00:36:35;57.80;;;34.90;;
58990;SDS011;44781;53.444;14.476;2023-03-01T00:39:04;58.50;;;34.80;;
58990;SDS011;44781;53.444;14.476;2023-03-01T00:41:34;55.90;;;33.10;;
58990;SDS011;44781;53.444;14.476;2023-03-01T00:44:02;58.90;;;34.60;;
58990;SDS011;44781;53.444;14.476;2023-03-01T00:46:30;63.90;;;37.10;;
58990;SDS011;44781;53.444;14.476;2023-03-01T00:48:57;65.20;;;36.90;;
58990;SDS011;44781;53.444;14.476;2023-03-01T00:51:25;61.00;;;36.50;;
58990;SDS011;44781;53.444;14.476;2023-03-01T00:53:54;61.90;;;33.80;;
58990;SDS011;44781;53.444;14.476;2023-03-01T00:56:26;61.30;;;36.30;;
58990;SDS011;44781;53.444;14.476;2023-03-01T00:58:55;60.50;;;35.50;;
58990;SDS011;44781;53.444;14.476;2023-03-01T01:01:25;60.90;;;35.00;;
58990;SDS011;44781;53.444;14.476;2023-03-01T01:03:57;67.30;;;39.20;;
58990;SDS011;44781;53.444;14.476;2023-03-01T01:06:34;68.10;;;39.70;;
58990;SDS011;44781;53.444;14.476;2023-03-01T01:09:04;64.70;;;38.80;;
58990;SDS011;44781;53.444;14.476;2023-03-01T01:11:33;69.10;;;38.00;;
58990;SDS011;44781;53.444;14.476;2023-03-01T01:14:03;63.30;;;37.00;;
58990;SDS011;44781;53.444;14.476;2023-03-01T01:16:30;65.50;;;39.60;;
58990;SDS011;44781;53.444;14.476;2023-03-01T01:18:57;65.70;;;40.50;;
58990;SDS011;44781;53.444;14.476;2023-03-01T01:21:25;65.10;;;38.00;;
58990;SDS011;44781;53.444;14.476;2023-03-01T01:23:54;59.70;;;37.20;;
58990;SDS011;44781;53.444;14.476;2023-03-01T01:26:23;65.60;;;38.20;;
58990;SDS011;44781;53.444;14.476;2023-03-01T01:28:54;70.90;;;41.10;;
58990;SDS011;44781;53.444;14.476;2023-03-01T01:31:22;69.50;;;40.00;;
58990;SDS011;44781;53.444;14.476;2023-03-01T01:33:50;65.10;;;39.10;;
58990;SDS011;44781;53.444;14.476;2023-03-01T01:36:18;69.80;;;39.80;;
58990;SDS011;44781;53.444;14.476;2023-03-01T01:38:46;64.30;;;38.30;;
58990;SDS011;44781;53.444;14.476;2023-03-01T01:41:14;63.40;;;38.90;;
58990;SDS011;44781;53.444;14.476;2023-03-01T01:43:42;59.90;;;36.90;;
58990;SDS011;44781;53.444;14.476;2023-03-01T01:49:19;56.00;;;35.60;;
58990;SDS011;44781;53.444;14.476;2023-03-01T01:51:51;54.40;;;32.30;;
58990;SDS011;44781;53.444;14.476;2023-03-01T01:54:25;57.30;;;34.50;;
58990;SDS011;44781;53.444;14.476;2023-03-01T01:56:59;60.10;;;34.50;;
58990;SDS011;44781;53.444;14.476;2023-03-01T01:59:30;60.00;;;35.00;;
58990;SDS011;44781;53.444;14.476;2023-03-01T02:02:00;63.70;;;36.10;;
58990;SDS011;44781;53.444;14.476;2023-03-01T02:04:33;66.10;;;37.10;;
58990;SDS011;44781;53.444;14.476;2023-03-01T02:07:05;69.50;;;37.60;;
58990;SDS011;44781;53.444;14.476;2023-03-01T02:09:40;64.00;;;34.10;;
58990;SDS011;44781;53.444;14.476;2023-03-01T02:12:12;70.00;;;37.00;;
58990;SDS011;44781;53.444;14.476;2023-03-01T02:14:42;61.20;;;35.80;;
58990;SDS011;44781;53.444;14.476;2023-03-01T02:17:11;54.10;;;32.20;;
58990;SDS011;44781;53.444;14.476;2023-03-01T02:24:55;53.20;;;32.60;;
58990;SDS011;44781;53.444;14.476;2023-03-01T02:27:36;51.80;;;31.90;;
58990;SDS011;44781;53.444;14.476;2023-03-01T02:30:16;49.40;;;30.40;;
58990;SDS011;44781;53.444;14.476;2023-03-01T02:32:46;52.30;;;31.80;;
58990;SDS011;44781;53.444;14.476;2023-03-01T02:35:15;49.80;;;31.70;;
58990;SDS011;44781;53.444;14.476;2023-03-01T02:37:44;50.60;;;32.00;;
58990;SDS011;44781;53.444;14.476;2023-03-01T02:40:15;58.80;;;31.70;;
58990;SDS011;44781;53.444;14.476;2023-03-01T02:42:53;63.30;;;35.50;;
58990;SDS011;44781;53.444;14.476;2023-03-01T02:45:24;60.70;;;34.30;;
58990;SDS011;44781;53.444;14.476;2023-03-01T02:47:54;65.00;;;34.90;;
58990;SDS011;44781;53.444;14.476;2023-03-01T02:55:31;61.30;;;36.10;;
58990;SDS011;44781;53.444;14.476;2023-03-01T02:58:02;66.90;;;35.40;;
58990;SDS011;44781;53.444;14.476;2023-03-01T03:00:32;68.40;;;38.60;;
58990;SDS011;44781;53.444;14.476;2023-03-01T03:03:06;63.80;;;37.70;;
58990;SDS011;44781;53.444;14.476;2023-03-01T03:05:34;67.50;;;37.10;;
58990;SDS011;44781;53.444;14.476;2023-03-01T03:08:02;58.60;;;33.70;;
58990;SDS011;44781;53.444;14.476;2023-03-01T03:10:35;58.80;;;33.80;;
58990;SDS011;44781;53.444;14.476;2023-03-01T03:13:05;57.90;;;33.40;;
58990;SDS011;44781;53.444;14.476;2023-03-01T03:15:35;59.30;;;33.70;;
58990;SDS011;44781;53.444;14.476;2023-03-01T03:18:03;63.50;;;34.60;;
58990;SDS011;44781;53.444;14.476;2023-03-01T03:20:33;59.30;;;35.10;;
58990;SDS011;44781;53.444;14.476;2023-03-01T03:23:00;65.00;;;36.20;;
58990;SDS011;44781;53.444;14.476;2023-03-01T03:25:30;70.30;;;39.00;;
58990;SDS011;44781;53.444;14.476;2023-03-01T03:27:58;66.40;;;39.10;;
58990;SDS011;44781;53.444;14.476;2023-03-01T03:30:29;74.10;;;39.40;;
58990;SDS011;44781;53.444;14.476;2023-03-01T03:32:58;63.30;;;38.50;;
58990;SDS011;44781;53.444;14.476;2023-03-01T03:35:30;60.10;;;37.10;;
58990;SDS011;44781;53.444;14.476;2023-03-01T03:38:01;65.20;;;37.40;;
58990;SDS011;44781;53.444;14.476;2023-03-01T03:40:46;60.60;;;36.00;;
58990;SDS011;44781;53.444;14.476;2023-03-01T03:43:15;64.50;;;38.70;;
58990;SDS011;44781;53.444;14.476;2023-03-01T03:45:45;69.50;;;41.10;;
58990;SDS011;44781;53.444;14.476;2023-03-01T03:48:13;70.60;;;37.30;;
58990;SDS011;44781;53.444;14.476;2023-03-01T03:50:41;62.40;;;34.60;;
58990;SDS011;44781;53.444;14.476;2023-03-01T03:53:13;62.00;;;37.20;;
58990;SDS011;44781;53.444;14.476;2023-03-01T03:55:40;67.60;;;37.30;;
58990;SDS011;44781;53.444;14.476;2023-03-01T03:58:08;58.10;;;36.50;;
58990;SDS011;44781;53.444;14.476;2023-03-01T04:00:40;60.40;;;36.60;;
58990;SDS011;44781;53.444;14.476;2023-03-01T04:03:09;64.40;;;37.80;;
58990;SDS011;44781;53.444;14.476;2023-03-01T04:05:38;64.70;;;38.00;;
58990;SDS011;44781;53.444;14.476;2023-03-01T04:08:06;68.40;;;37.70;;
58990;SDS011;44781;53.444;14.476;2023-03-01T04:10:39;64.90;;;39.40;;
58990;SDS011;44781;53.444;14.476;2023-03-01T04:13:09;67.40;;;38.40;;
58990;SDS011;44781;53.444;14.476;2023-03-01T04:15:39;66.20;;;38.30;;
58990;SDS011;44781;53.444;14.476;2023-03-01T04:18:07;63.30;;;36.20;;
58990;SDS011;44781;53.444;14.476;2023-03-01T04:20:41;62.90;;;36.40;;
58990;SDS011;44781;53.444;14.476;2023-03-01T04:23:14;64.10;;;35.30;;
58990;SDS011;44781;53.444;14.476;2023-03-01T04:25:47;68.70;;;36.70;;
58990;SDS011;44781;53.444;14.476;2023-03-01T04:28:21;67.00;;;39.00;;
58990;SDS011;44781;53.444;14.476;2023-03-01T04:30:53;66.90;;;37.60;;
58990;SDS011;44781;53.444;14.476;2023-03-01T04:33:22;68.50;;;38.70;;
58990;SDS011;44781;53.444;14.476;2023-03-01T04:35:50;70.60;;;40.30;;
58990;SDS011;44781;53.444;14.476;2023-03-01T04:38:18;73.40;;;41.00;;
58990;SDS011;44781;53.444;14.476;2023-03-01T04:40:46;70.80;;;40.60;;
58990;SDS011;44781;53.444;14.476;2023-03-01T04:43:14;67.50;;;41.10;;
58990;SDS011;44781;53.444;14.476;2023-03-01T04:45:42;66.00;;;38.40;;
58990;SDS011;44781;53.444;14.476;2023-03-01T04:48:09;61.30;;;36.60;;
58990;SDS011;44781;53.444;14.476;2023-03-01T04:50:36;60.70;;;35.90;;
58990;SDS011;44781;53.444;14.476;2023-03-01T04:53:03;57.30;;;35.40;;
58990;SDS011;44781;53.444;14.476;2023-03-01T04:55:30;61.30;;;37.20;;
58990;SDS011;44781;53.444;14.476;2023-03-01T04:57:58;67.30;;;40.40;;
58990;SDS011;44781;53.444;14.476;2023-03-01T05:00:25;62.20;;;39.20;;
58990;SDS011;44781;53.444;14.476;2023-03-01T05:02:54;64.60;;;39.50;;
58990;SDS011;44781;53.444;14.476;2023-03-01T05:05:27;63.10;;;38.50;;
58990;SDS011;44781;53.444;14.476;2023-03-01T05:07:58;68.60;;;41.20;;
58990;SDS011;44781;53.444;14.476;2023-03-01T05:10:28;70.70;;;41.10;;
58990;SDS011;44781;53.444;14.476;2023-03-01T05:12:57;72.10;;;41.30;;
58990;SDS011;44781;53.444;14.476;2023-03-01T05:15:40;77.30;;;45.00;;
58990;SDS011;44781;53.444;14.476;2023-03-01T05:18:07;90.30;;;48.60;;
58990;SDS011;44781;53.444;14.476;2023-03-01T05:20:37;75.00;;;44.80;;
58990;SDS011;44781;53.444;14.476;2023-03-01T05:23:05;80.90;;;46.10;;
58990;SDS011;44781;53.444;14.476;2023-03-01T05:25:33;67.00;;;41.60;;
58990;SDS011;44781;53.444;14.476;2023-03-01T05:28:02;69.60;;;41.60;;
58990;SDS011;44781;53.444;14.476;2023-03-01T05:30:32;75.20;;;43.70;;
58990;SDS011;44781;53.444;14.476;2023-03-01T05:33:00;78.80;;;45.10;;
58990;SDS011;44781;53.444;14.476;2023-03-01T05:35:27;72.00;;;41.40;;
58990;SDS011;44781;53.444;14.476;2023-03-01T05:37:56;79.80;;;45.40;;
58990;SDS011;44781;53.444;14.476;2023-03-01T05:40:24;67.10;;;40.40;;
58990;SDS011;44781;53.444;14.476;2023-03-01T05:42:55;75.50;;;42.70;;
58990;SDS011;44781;53.444;14.476;2023-03-01T05:45:23;77.70;;;46.20;;
58990;SDS011;44781;53.444;14.476;2023-03-01T05:47:54;80.10;;;45.60;;
58990;SDS011;44781;53.444;14.476;2023-03-01T05:50:25;83.40;;;46.30;;
58990;SDS011;44781;53.444;14.476;2023-03-01T05:52:58;85.10;;;44.90;;
58990;SDS011;44781;53.444;14.476;2023-03-01T05:55:26;74.40;;;41.60;;
58990;SDS011;44781;53.444;14.476;2023-03-01T05:57:53;79.40;;;42.10;;
58990;SDS011;44781;53.444;14.476;2023-03-01T06:00:21;78.90;;;43.20;;
58990;SDS011;44781;53.444;14.476;2023-03-01T06:02:52;70.90;;;42.00;;
58990;SDS011;44781;53.444;14.476;2023-03-01T06:05:20;76.20;;;42.10;;
58990;SDS011;44781;53.444;14.476;2023-03-01T06:07:48;72.20;;;44.40;;
58990;SDS011;44781;53.444;14.476;2023-03-01T06:10:17;67.70;;;41.70;;
58990;SDS011;44781;53.444;14.476;2023-03-01T06:12:47;75.70;;;44.50;;
58990;SDS011;44781;53.444;14.476;2023-03-01T06:15:15;76.90;;;44.00;;
58990;SDS011;44781;53.444;14.476;2023-03-01T06:17:44;70.50;;;41.10;;
58990;SDS011;44781;53.444;14.476;2023-03-01T06:20:17;72.90;;;43.20;;
58990;SDS011;44781;53.444;14.476;2023-03-01T06:22:52;72.90;;;41.50;;
58990;SDS011;44781;53.444;14.476;2023-03-01T06:25:20;70.10;;;40.20;;
58990;SDS011;44781;53.444;14.476;2023-03-01T06:27:50;70.30;;;40.40;;
58990;SDS011;44781;53.444;14.476;2023-03-01T06:30:22;74.00;;;41.80;;
58990;SDS011;44781;53.444;14.476;2023-03-01T06:32:51;69.60;;;42.60;;
58990;SDS011;44781;53.444;14.476;2023-03-01T06:35:18;68.70;;;41.20;;
58990;SDS011;44781;53.444;14.476;2023-03-01T06:37:46;78.80;;;44.90;;
58990;SDS011;44781;53.444;14.476;2023-03-01T06:40:14;77.20;;;44.80;;
58990;SDS011;44781;53.444;14.476;2023-03-01T06:42:43;78.80;;;46.10;;
58990;SDS011;44781;53.444;14.476;2023-03-01T06:45:14;76.20;;;46.00;;
58990;SDS011;44781;53.444;14.476;2023-03-01T06:47:42;71.40;;;45.80;;
58990;SDS011;44781;53.444;14.476;2023-03-01T06:50:09;73.30;;;41.80;;
58990;SDS011;44781;53.444;14.476;2023-03-01T06:52:41;68.40;;;40.20;;
58990;SDS011;44781;53.444;14.476;2023-03-01T06:55:13;70.50;;;42.20;;
58990;SDS011;44781;53.444;14.476;2023-03-01T06:57:44;76.60;;;44.50;;
58990;SDS011;44781;53.444;14.476;2023-03-01T07:00:11;78.00;;;45.00;;
58990;SDS011;44781;53.444;14.476;2023-03-01T07:02:39;77.80;;;45.40;;
58990;SDS011;44781;53.444;14.476;2023-03-01T07:05:07;77.00;;;44.10;;
58990;SDS011;44781;53.444;14.476;2023-03-01T07:07:36;70.30;;;42.80;;
58990;SDS011;44781;53.444;14.476;2023-03-01T07:10:06;73.40;;;42.80;;
58990;SDS011;44781;53.444;14.476;2023-03-01T07:12:34;68.00;;;42.80;;
58990;SDS011;44781;53.444;14.476;2023-03-01T07:15:01;78.70;;;46.40;;
58990;SDS011;44781;53.444;14.476;2023-03-01T07:17:28;73.10;;;44.70;;
58990;SDS011;44781;53.444;14.476;2023-03-01T07:19:56;74.10;;;45.50;;
58990;SDS011;44781;53.444;14.476;2023-03-01T07:22:23;87.30;;;52.80;;
58990;SDS011;44781;53.444;14.476;2023-03-01T07:24:51;94.20;;;56.30;;
58990;SDS011;44781;53.444;14.476;2023-03-01T07:27:18;85.60;;;57.80;;
58990;SDS011;44781;53.444;14.476;2023-03-01T07:29:46;89.10;;;58.10;;
58990;SDS011;44781;53.444;14.476;2023-03-01T07:32:13;90.20;;;57.60;;
58990;SDS011;44781;53.444;14.476;2023-03-01T07:34:41;87.80;;;56.20;;
58990;SDS011;44781;53.444;14.476;2023-03-01T07:37:08;82.90;;;49.70;;
58990;SDS011;44781;53.444;14.476;2023-03-01T07:39:36;74.70;;;45.80;;
58990;SDS011;44781;53.444;14.476;2023-03-01T07:42:12;68.70;;;44.30;;
58990;SDS011;44781;53.444;14.476;2023-03-01T07:44:41;66.30;;;43.00;;
58990;SDS011;44781;53.444;14.476;2023-03-01T07:47:11;59.40;;;41.10;;
58990;SDS011;44781;53.444;14.476;2023-03-01T07:49:39;57.60;;;40.50;;
58990;SDS011;44781;53.444;14.476;2023-03-01T07:52:06;60.90;;;39.30;;
58990;SDS011;44781;53.444;14.476;2023-03-01T07:54:43;57.20;;;37.00;;
58990;SDS011;44781;53.444;14.476;2023-03-01T07:57:11;56.10;;;37.80;;
58990;SDS011;44781;53.444;14.476;2023-03-01T07:59:38;60.40;;;39.90;;
58990;SDS011;44781;53.444;14.476;2023-03-01T08:02:07;69.30;;;44.10;;
58990;SDS011;44781;53.444;14.476;2023-03-01T08:05:00;66.70;;;41.60;;
58990;SDS011;44781;53.444;14.476;2023-03-01T08:07:27;65.20;;;42.10;;
58990;SDS011;44781;53.444;14.476;2023-03-01T08:09:54;63.90;;;41.10;;
58990;SDS011;44781;53.444;14.476;2023-03-01T08:12:24;58.30;;;40.10;;
58990;SDS011;44781;53.444;14.476;2023-03-01T08:18:02;57.70;;;36.30;;
58990;SDS011;44781;53.444;14.476;2023-03-01T08:20:30;51.30;;;32.40;;
58990;SDS011;44781;53.444;14.476;2023-03-01T08:22:58;45.90;;;29.40;;
58990;SDS011;44781;53.444;14.476;2023-03-01T08:25:28;40.60;;;26.80;;
58990;SDS011;44781;53.444;14.476;2023-03-01T08:27:56;38.20;;;25.50;;
58990;SDS011;44781;53.444;14.476;2023-03-01T08:30:27;29.60;;;19.70;;
58990;SDS011;44781;53.444;14.476;2023-03-01T08:33:05;27.30;;;18.70;;
58990;SDS011;44781;53.444;14.476;2023-03-01T08:35:39;26.20;;;18.80;;
58990;SDS011;44781;53.444;14.476;2023-03-01T08:41:20;27.00;;;17.90;;
58990;SDS011;44781;53.444;14.476;2023-03-01T08:44:16;25.80;;;16.90;;
58990;SDS011;44781;53.444;14.476;2023-03-01T08:46:50;22.10;;;13.70;;
58990;SDS011;44781;53.444;14.476;2023-03-01T08:49:19;23.70;;;14.40;;
58990;SDS011;44781;53.444;14.476;2023-03-01T08:51:47;18.50;;;12.50;;
58990;SDS011;44781;53.444;14.476;2023-03-01T08:54:19;15.00;;;9.20;;
58990;SDS011;44781;53.444;14.476;2023-03-01T08:56:53;11.40;;;6.60;;
58990;SDS011;44781;53.444;14.476;2023-03-01T09:03:19;12.20;;;5.80;;
58990;SDS011;44781;53.444;14.476;2023-03-01T09:09:01;8.80;;;4.60;;
58990;SDS011;44781;53.444;14.476;2023-03-01T09:11:34;8.40;;;4.50;;
58990;SDS011;44781;53.444;14.476;2023-03-01T09:14:04;8.30;;;4.90;;
58990;SDS011;44781;53.444;14.476;2023-03-01T09:19:10;9.60;;;4.80;;
58990;SDS011;44781;53.444;14.476;2023-03-01T09:21:39;7.90;;;4.10;;
58990;SDS011;44781;53.444;14.476;2023-03-01T09:24:15;7.70;;;3.90;;
58990;SDS011;44781;53.444;14.476;2023-03-01T09:26:42;8.10;;;4.20;;
58990;SDS011;44781;53.444;14.476;2023-03-01T09:29:13;9.00;;;4.40;;
58990;SDS011;44781;53.444;14.476;2023-03-01T09:31:41;8.70;;;4.40;;
58990;SDS011;44781;53.444;14.476;2023-03-01T09:34:09;8.90;;;4.60;;
58990;SDS011;44781;53.444;14.476;2023-03-01T09:36:47;10.50;;;4.00;;
58990;SDS011;44781;53.444;14.476;2023-03-01T09:39:14;7.90;;;4.00;;
58990;SDS011;44781;53.444;14.476;2023-03-01T09:47:08;8.20;;;4.50;;
58990;SDS011;44781;53.444;14.476;2023-03-01T09:49:42;6.60;;;3.40;;
58990;SDS011;44781;53.444;14.476;2023-03-01T09:52:50;6.80;;;3.60;;
58990;SDS011;44781;53.444;14.476;2023-03-01T09:55:13;8.80;;;3.70;;
58990;SDS011;44781;53.444;14.476;2023-03-01T09:57:49;7.70;;;4.40;;
58990;SDS011;44781;53.444;14.476;2023-03-01T10:00:37;7.70;;;3.90;;
58990;SDS011;44781;53.444;14.476;2023-03-01T10:03:13;7.50;;;4.20;;
58990;SDS011;44781;53.444;14.476;2023-03-01T10:08:54;8.30;;;3.80;;
58990;SDS011;44781;53.444;14.476;2023-03-01T10:11:30;8.80;;;3.80;;
58990;SDS011;44781;53.444;14.476;2023-03-01T10:14:19;7.50;;;4.20;;
58990;SDS011;44781;53.444;14.476;2023-03-01T10:17:04;8.40;;;4.50;;
58990;SDS011;44781;53.444;14.476;2023-03-01T10:19:43;8.60;;;4.00;;
58990;SDS011;44781;53.444;14.476;2023-03-01T10:22:28;9.10;;;4.50;;
58990;SDS011;44781;53.444;14.476;2023-03-01T10:25:02;7.80;;;4.10;;
58990;SDS011;44781;53.444;14.476;2023-03-01T10:27:49;10.00;;;4.50;;
58990;SDS011;44781;53.444;14.476;2023-03-01T10:30:29;8.90;;;4.80;;
58990;SDS011;44781;53.444;14.476;2023-03-01T10:33:03;8.50;;;4.50;;
58990;SDS011;44781;53.444;14.476;2023-03-01T10:35:34;9.30;;;4.60;;
58990;SDS011;44781;53.444;14.476;2023-03-01T10:40:32;8.50;;;4.90;;
58990;SDS011;44781;53.444;14.476;2023-03-01T10:43:01;9.20;;;4.50;;
58990;SDS011;44781;53.444;14.476;2023-03-01T10:48:12;9.20;;;5.00;;
58990;SDS011;44781;53.444;14.476;2023-03-01T10:50:46;10.30;;;5.20;;
58990;SDS011;44781;53.444;14.476;2023-03-01T10:53:27;8.40;;;4.80;;
58990;SDS011;44781;53.444;14.476;2023-03-01T10:55:58;8.40;;;5.00;;
58990;SDS011;44781;53.444;14.476;2023-03-01T10:58:33;9.80;;;5.20;;
58990;SDS011;44781;53.444;14.476;2023-03-01T11:01:03;9.70;;;4.80;;
58990;SDS011;44781;53.444;14.476;2023-03-01T11:03:32;10.10;;;4.60;;
58990;SDS011;44781;53.444;14.476;2023-03-01T11:08:39;9.80;;;6.20;;
58990;SDS011;44781;53.444;14.476;2023-03-01T11:11:24;9.40;;;5.20;;
58990;SDS011;44781;53.444;14.476;2023-03-01T11:13:59;9.20;;;5.30;;
58990;SDS011;44781;53.444;14.476;2023-03-01T11:16:37;9.00;;;5.10;;
58990;SDS011;44781;53.444;14.476;2023-03-01T11:21:39;10.10;;;5.30;;
58990;SDS011;44781;53.444;14.476;2023-03-01T11:24:19;9.70;;;4.70;;
58990;SDS011;44781;53.444;14.476;2023-03-01T11:26:51;8.40;;;4.70;;
58990;SDS011;44781;53.444;14.476;2023-03-01T11:29:32;8.10;;;4.70;;
58990;SDS011;44781;53.444;14.476;2023-03-01T11:32:01;9.70;;;4.20;;
58990;SDS011;44781;53.444;14.476;2023-03-01T11:38:03;8.70;;;5.10;;
58990;SDS011;44781;53.444;14.476;2023-03-01T11:40:47;10.40;;;5.60;;
58990;SDS011;44781;53.444;14.476;2023-03-01T11:52:29;8.10;;;4.20;;
58990;SDS011;44781;53.444;14.476;2023-03-01T12:11:46;8.20;;;4.30;;
58990;SDS011;44781;53.444;14.476;2023-03-01T12:23:32;8.70;;;4.80;;
58990;SDS011;44781;53.444;14.476;2023-03-01T12:39:45;10.30;;;4.70;;
58990;SDS011;44781;53.444;14.476;2023-03-01T12:45:44;8.40;;;3.80;;
58990;SDS011;44781;53.444;14.476;2023-03-01T12:48:29;7.00;;;3.50;;
58990;SDS011;44781;53.444;14.476;2023-03-01T12:50:59;7.00;;;3.80;;
58990;SDS011;44781;53.444;14.476;2023-03-01T12:53:35;8.50;;;4.30;;
58990;SDS011;44781;53.444;14.476;2023-03-01T12:56:09;8.80;;;4.30;;
58990;SDS011;44781;53.444;14.476;2023-03-01T13:01:42;7.90;;;4.50;;
58990;SDS011;44781;53.444;14.476;2023-03-01T13:17:51;9.50;;;4.90;;
58990;SDS011;44781;53.444;14.476;2023-03-01T13:31:01;10.20;;;5.00;;
58990;SDS011;44781;53.444;14.476;2023-03-01T13:33:52;9.60;;;4.90;;
58990;SDS011;44781;53.444;14.476;2023-03-01T13:47:06;8.30;;;4.80;;
58990;SDS011;44781;53.444;14.476;2023-03-01T13:49:52;9.10;;;5.80;;
58990;SDS011;44781;53.444;14.476;2023-03-01T13:52:44;9.70;;;6.00;;
58990;SDS011;44781;53.444;14.476;2023-03-01T14:01:05;10.30;;;6.00;;
58990;SDS011;44781;53.444;14.476;2023-03-01T14:03:40;9.90;;;6.30;;
58990;SDS011;44781;53.444;14.476;2023-03-01T14:06:12;8.10;;;4.90;;
58990;SDS011;44781;53.444;14.476;2023-03-01T14:08:44;9.20;;;5.40;;
58990;SDS011;44781;53.444;14.476;2023-03-01T14:19:48;9.00;;;5.20;;
58990;SDS011;44781;53.444;14.476;2023-03-01T14:22:27;9.10;;;5.50;;
58990;SDS011;44781;53.444;14.476;2023-03-01T14:24:58;9.70;;;5.50;;
58990;SDS011;44781;53.444;14.476;2023-03-01T14:27:36;8.70;;;4.80;;
58990;SDS011;44781;53.444;14.476;2023-03-01T14:33:15;11.70;;;6.50;;
58990;SDS011;44781;53.444;14.476;2023-03-01T14:35:54;9.70;;;5.50;;
58990;SDS011;44781;53.444;14.476;2023-03-01T14:41:03;10.30;;;5.50;;
58990;SDS011;44781;53.444;14.476;2023-03-01T14:44:02;8.70;;;4.30;;
58990;SDS011;44781;53.444;14.476;2023-03-01T14:46:35;7.70;;;3.60;;
58990;SDS011;44781;53.444;14.476;2023-03-01T14:49:14;6.20;;;3.20;;
58990;SDS011;44781;53.444;14.476;2023-03-01T14:51:44;5.70;;;2.60;;
58990;SDS011;44781;53.444;14.476;2023-03-01T14:54:27;5.90;;;2.30;;
58990;SDS011;44781;53.444;14.476;2023-03-01T14:56:59;3.00;;;1.50;;
58990;SDS011;44781;53.444;14.476;2023-03-01T14:59:27;5.30;;;2.00;;
58990;SDS011;44781;53.444;14.476;2023-03-01T15:01:58;4.70;;;2.10;;
58990;SDS011;44781;53.444;14.476;2023-03-01T15:04:27;3.70;;;1.70;;
58990;SDS011;44781;53.444;14.476;2023-03-01T15:06:56;3.60;;;1.90;;
58990;SDS011;44781;53.444;14.476;2023-03-01T15:09:32;4.30;;;2.00;;
58990;SDS011;44781;53.444;14.476;2023-03-01T15:15:06;4.00;;;1.60;;
58990;SDS011;44781;53.444;14.476;2023-03-01T15:17:58;4.00;;;2.00;;
58990;SDS011;44781;53.444;14.476;2023-03-01T15:20:27;4.50;;;2.60;;
58990;SDS011;44781;53.444;14.476;2023-03-01T15:22:57;7.20;;;3.40;;
58990;SDS011;44781;53.444;14.476;2023-03-01T15:25:27;6.50;;;3.50;;
58990;SDS011;44781;53.444;14.476;2023-03-01T15:27:57;7.40;;;3.80;;
58990;SDS011;44781;53.444;14.476;2023-03-01T15:30:27;6.90;;;3.80;;
58990;SDS011;44781;53.444;14.476;2023-03-01T15:33:25;7.10;;;4.10;;
58990;SDS011;44781;53.444;14.476;2023-03-01T15:35:57;7.20;;;3.70;;
58990;SDS011;44781;53.444;14.476;2023-03-01T15:41:32;8.00;;;4.50;;
58990;SDS011;44781;53.444;14.476;2023-03-01T15:44:18;8.90;;;5.10;;
58990;SDS011;44781;53.444;14.476;2023-03-01T15:46:51;8.10;;;4.40;;
58990;SDS011;44781;53.444;14.476;2023-03-01T15:52:12;7.70;;;4.40;;
58990;SDS011;44781;53.444;14.476;2023-03-01T15:54:56;7.60;;;4.40;;
58990;SDS011;44781;53.444;14.476;2023-03-01T15:57:28;9.10;;;4.10;;
58990;SDS011;44781;53.444;14.476;2023-03-01T15:59:55;9.20;;;4.20;;
58990;SDS011;44781;53.444;14.476;2023-03-01T16:02:25;8.10;;;3.90;;
58990;SDS011;44781;53.444;14.476;2023-03-01T16:04:53;8.90;;;3.90;;
58990;SDS011;44781;53.444;14.476;2023-03-01T16:07:20;8.40;;;4.80;;
58990;SDS011;44781;53.444;14.476;2023-03-01T16:09:48;7.90;;;3.90;;
58990;SDS011;44781;53.444;14.476;2023-03-01T16:12:15;8.30;;;3.90;;
58990;SDS011;44781;53.444;14.476;2023-03-01T16:14:43;7.50;;;4.20;;
58990;SDS011;44781;53.444;14.476;2023-03-01T16:17:11;9.10;;;4.80;;
58990;SDS011;44781;53.444;14.476;2023-03-01T16:19:39;7.60;;;4.20;;
58990;SDS011;44781;53.444;14.476;2023-03-01T16:22:14;8.60;;;5.10;;
58990;SDS011;44781;53.444;14.476;2023-03-01T16:24:44;9.70;;;4.90;;
58990;SDS011;44781;53.444;14.476;2023-03-01T16:27:17;8.50;;;4.80;;
58990;SDS011;44781;53.444;14.476;2023-03-01T16:29:47;9.00;;;5.30;;
58990;SDS011;44781;53.444;14.476;2023-03-01T16:32:14;9.10;;;5.70;;
58990;SDS011;44781;53.444;14.476;2023-03-01T16:34:42;8.50;;;5.70;;
58990;SDS011;44781;53.444;14.476;2023-03-01T16:37:09;8.50;;;5.40;;
58990;SDS011;44781;53.444;14.476;2023-03-01T16:39:37;9.80;;;5.50;;
58990;SDS011;44781;53.444;14.476;2023-03-01T16:42:04;10.30;;;6.80;;
58990;SDS011;44781;53.444;14.476;2023-03-01T16:44:35;9.90;;;5.90;;
58990;SDS011;44781;53.444;14.476;2023-03-01T16:47:02;8.40;;;5.90;;
58990;SDS011;44781;53.444;14.476;2023-03-01T16:49:29;9.50;;;5.30;;
58990;SDS011;44781;53.444;14.476;2023-03-01T16:51:57;9.00;;;5.60;;
58990;SDS011;44781;53.444;14.476;2023-03-01T16:54:25;21.40;;;13.30;;
58990;SDS011;44781;53.444;14.476;2023-03-01T16:56:52;27.30;;;14.10;;
58990;SDS011;44781;53.444;14.476;2023-03-01T16:59:22;28.40;;;16.00;;
58990;SDS011;44781;53.444;14.476;2023-03-01T17:01:49;27.60;;;14.00;;
58990;SDS011;44781;53.444;14.476;2023-03-01T17:04:18;31.60;;;16.20;;
58990;SDS011;44781;53.444;14.476;2023-03-01T17:06:45;31.50;;;19.90;;
58990;SDS011;44781;53.444;14.476;2023-03-01T17:09:13;60.00;;;33.00;;
58990;SDS011;44781;53.444;14.476;2023-03-01T17:11:43;76.50;;;42.90;;
58990;SDS011;44781;53.444;14.476;2023-03-01T17:14:13;67.40;;;39.80;;
58990;SDS011;44781;53.444;14.476;2023-03-01T17:16:51;72.50;;;43.20;;
58990;SDS011;44781;53.444;14.476;2023-03-01T17:19:19;59.70;;;38.00;;
58990;SDS011;44781;53.444;14.476;2023-03-01T17:21:47;63.90;;;40.30;;
58990;SDS011;44781;53.444;14.476;2023-03-01T17:24:16;149.40;;;89.30;;
58990;SDS011;44781;53.444;14.476;2023-03-01T17:26:45;126.50;;;71.70;;
58990;SDS011;44781;53.444;14.476;2023-03-01T17:29:12;91.30;;;55.70;;
58990;SDS011;44781;53.444;14.476;2023-03-01T17:31:40;81.40;;;49.60;;
58990;SDS011;44781;53.444;14.476;2023-03-01T17:34:08;74.30;;;45.40;;
58990;SDS011;44781;53.444;14.476;2023-03-01T17:36:35;71.30;;;44.80;;